sensor_id;sensor_type;location;lat;lon;timestamp;pressure;altitude;pressure_sealevel;temperature;humidity
46111;BME280;31849;55.992;37.252;2023-12-28T00:04:52;98181.75;;;-2.26;71.30
46111;BME280;31849;55.992;37.252;2023-12-28T00:09:56;98185.06;;;-2.30;71.37
46111;BME280;31849;55.992;37.252;2023-12-28T00:15:00;98192.09;;;-2.20;71.17
46111;BME280;31849;55.992;37.252;2023-12-28T00:20:08;98191.34;;;-2.17;71.21
46111;BME280;31849;55.992;37.252;2023-12-28T00:25:12;98196.88;;;-2.02;71.06
46111;BME280;31849;55.992;37.252;2023-12-28T00:30:16;98197.56;;;-2.07;70.98
46111;BME280;31849;55.992;37.252;2023-12-28T00:35:22;98191.41;;;-2.14;70.72
46111;BME280;31849;55.992;37.252;2023-12-28T00:40:26;98194.28;;;-2.03;70.51
46111;BME280;31849;55.992;37.252;2023-12-28T00:45:30;98199.25;;;-2.06;70.81
46111;BME280;31849;55.992;37.252;2023-12-28T00:50:35;98206.22;;;-2.01;70.22
46111;BME280;31849;55.992;37.252;2023-12-28T00:55:39;98217.50;;;-1.92;70.23
46111;BME280;31849;55.992;37.252;2023-12-28T01:00:43;98208.00;;;-1.98;70.82
46111;BME280;31849;55.992;37.252;2023-12-28T01:05:49;98217.22;;;-2.03;70.35
46111;BME280;31849;55.992;37.252;2023-12-28T01:10:54;98225.06;;;-1.96;70.22
46111;BME280;31849;55.992;37.252;2023-12-28T01:15:58;98229.56;;;-1.85;70.49
46111;BME280;31849;55.992;37.252;2023-12-28T01:21:04;98236.22;;;-1.90;69.92
46111;BME280;31849;55.992;37.252;2023-12-28T01:26:12;98234.44;;;-1.93;70.58
46111;BME280;31849;55.992;37.252;2023-12-28T01:31:16;98236.06;;;-1.97;70.40
46111;BME280;31849;55.992;37.252;2023-12-28T01:36:22;98238.88;;;-1.86;70.74
46111;BME280;31849;55.992;37.252;2023-12-28T01:41:26;98245.88;;;-1.79;70.40
46111;BME280;31849;55.992;37.252;2023-12-28T01:46:30;98234.03;;;-1.78;70.07
46111;BME280;31849;55.992;37.252;2023-12-28T01:51:36;98243.31;;;-1.79;70.00
46111;BME280;31849;55.992;37.252;2023-12-28T01:56:42;98240.09;;;-1.73;70.38
46111;BME280;31849;55.992;37.252;2023-12-28T02:01:46;98255.38;;;-1.73;69.92
46111;BME280;31849;55.992;37.252;2023-12-28T02:06:53;98266.06;;;-1.86;70.56
46111;BME280;31849;55.992;37.252;2023-12-28T02:11:57;98268.03;;;-1.76;70.52
46111;BME280;31849;55.992;37.252;2023-12-28T02:17:14;98279.13;;;-1.74;70.45
46111;BME280;31849;55.992;37.252;2023-12-28T02:22:23;98282.63;;;-1.70;70.05
46111;BME280;31849;55.992;37.252;2023-12-28T02:27:30;98280.16;;;-1.67;70.42
46111;BME280;31849;55.992;37.252;2023-12-28T02:32:42;98277.34;;;-1.78;69.87
46111;BME280;31849;55.992;37.252;2023-12-28T02:37:51;98269.50;;;-1.84;70.19
46111;BME280;31849;55.992;37.252;2023-12-28T02:42:57;98280.75;;;-1.78;70.13
46111;BME280;31849;55.992;37.252;2023-12-28T02:48:01;98273.09;;;-1.78;69.89
46111;BME280;31849;55.992;37.252;2023-12-28T02:53:08;98293.28;;;-1.85;70.30
46111;BME280;31849;55.992;37.252;2023-12-28T02:58:13;98294.84;;;-1.89;70.28
46111;BME280;31849;55.992;37.252;2023-12-28T03:03:17;98293.84;;;-1.96;69.75
46111;BME280;31849;55.992;37.252;2023-12-28T03:08:21;98304.88;;;-1.95;69.93
46111;BME280;31849;55.992;37.252;2023-12-28T03:13:26;98308.94;;;-2.02;70.39
46111;BME280;31849;55.992;37.252;2023-12-28T03:18:30;98317.56;;;-1.97;70.03
46111;BME280;31849;55.992;37.252;2023-12-28T03:23:34;98324.34;;;-1.97;70.42
46111;BME280;31849;55.992;37.252;2023-12-28T03:28:40;98314.28;;;-1.92;70.36
46111;BME280;31849;55.992;37.252;2023-12-28T03:33:43;98314.25;;;-1.94;69.92
46111;BME280;31849;55.992;37.252;2023-12-28T03:38:47;98312.16;;;-2.07;70.35
46111;BME280;31849;55.992;37.252;2023-12-28T03:43:52;98327.69;;;-2.28;70.30
46111;BME280;31849;55.992;37.252;2023-12-28T03:48:56;98336.81;;;-2.35;70.75
46111;BME280;31849;55.992;37.252;2023-12-28T03:54:00;98332.38;;;-2.41;70.79
46111;BME280;31849;55.992;37.252;2023-12-28T03:59:05;98322.25;;;-2.39;71.07
46111;BME280;31849;55.992;37.252;2023-12-28T04:04:10;98337.03;;;-2.27;71.04
46111;BME280;31849;55.992;37.252;2023-12-28T04:09:14;98333.34;;;-2.37;70.77
46111;BME280;31849;55.992;37.252;2023-12-28T04:14:21;98346.53;;;-2.51;70.86
46111;BME280;31849;55.992;37.252;2023-12-28T04:19:25;98350.50;;;-2.59;71.05
46111;BME280;31849;55.992;37.252;2023-12-28T04:24:29;98355.06;;;-2.76;71.35
46111;BME280;31849;55.992;37.252;2023-12-28T04:29:35;98354.84;;;-2.82;71.63
46111;BME280;31849;55.992;37.252;2023-12-28T04:34:38;98347.66;;;-2.68;71.55
46111;BME280;31849;55.992;37.252;2023-12-28T04:39:42;98363.28;;;-2.83;71.55
46111;BME280;31849;55.992;37.252;2023-12-28T04:44:48;98364.84;;;-2.87;71.85
46111;BME280;31849;55.992;37.252;2023-12-28T04:49:52;98365.88;;;-2.81;71.70
46111;BME280;31849;55.992;37.252;2023-12-28T04:54:56;98366.13;;;-2.74;72.34
46111;BME280;31849;55.992;37.252;2023-12-28T05:00:01;98376.69;;;-2.61;71.51
46111;BME280;31849;55.992;37.252;2023-12-28T05:05:06;98378.47;;;-2.59;71.55
46111;BME280;31849;55.992;37.252;2023-12-28T05:10:11;98381.41;;;-2.47;71.75
46111;BME280;31849;55.992;37.252;2023-12-28T05:15:16;98386.69;;;-2.42;71.27
46111;BME280;31849;55.992;37.252;2023-12-28T05:20:21;98387.72;;;-2.35;71.22
46111;BME280;31849;55.992;37.252;2023-12-28T05:25:25;98397.63;;;-2.44;71.53
46111;BME280;31849;55.992;37.252;2023-12-28T05:30:31;98402.84;;;-2.40;71.17
46111;BME280;31849;55.992;37.252;2023-12-28T05:35:35;98409.16;;;-2.28;71.11
46111;BME280;31849;55.992;37.252;2023-12-28T05:40:38;98415.16;;;-2.26;70.81
46111;BME280;31849;55.992;37.252;2023-12-28T05:45:44;98427.13;;;-2.24;70.96
46111;BME280;31849;55.992;37.252;2023-12-28T05:50:47;98429.97;;;-2.15;71.18
46111;BME280;31849;55.992;37.252;2023-12-28T05:55:51;98431.66;;;-2.15;70.97
46111;BME280;31849;55.992;37.252;2023-12-28T06:00:57;98448.81;;;-2.08;70.71
46111;BME280;31849;55.992;37.252;2023-12-28T06:06:01;98462.00;;;-1.94;71.01
46111;BME280;31849;55.992;37.252;2023-12-28T06:11:05;98473.19;;;-1.89;70.50
46111;BME280;31849;55.992;37.252;2023-12-28T06:16:10;98479.41;;;-1.81;69.98
46111;BME280;31849;55.992;37.252;2023-12-28T06:21:14;98478.78;;;-1.73;70.56
46111;BME280;31849;55.992;37.252;2023-12-28T06:26:18;98506.56;;;-1.54;70.01
46111;BME280;31849;55.992;37.252;2023-12-28T06:31:24;98502.22;;;-1.56;69.98
46111;BME280;31849;55.992;37.252;2023-12-28T06:36:28;98513.97;;;-1.62;69.09
46111;BME280;31849;55.992;37.252;2023-12-28T06:41:32;98515.47;;;-1.68;69.38
46111;BME280;31849;55.992;37.252;2023-12-28T06:46:37;98522.72;;;-1.53;69.67
46111;BME280;31849;55.992;37.252;2023-12-28T06:51:41;98523.59;;;-1.53;69.51
46111;BME280;31849;55.992;37.252;2023-12-28T06:56:48;98533.88;;;-1.50;69.00
46111;BME280;31849;55.992;37.252;2023-12-28T07:01:54;98546.94;;;-1.39;68.67
46111;BME280;31849;55.992;37.252;2023-12-28T07:06:58;98554.47;;;-1.44;68.48
46111;BME280;31849;55.992;37.252;2023-12-28T07:12:03;98542.78;;;-1.35;67.78
46111;BME280;31849;55.992;37.252;2023-12-28T07:17:08;98557.44;;;-1.30;67.90
46111;BME280;31849;55.992;37.252;2023-12-28T07:22:14;98558.56;;;-1.20;67.32
46111;BME280;31849;55.992;37.252;2023-12-28T07:27:18;98568.19;;;-1.11;66.42
46111;BME280;31849;55.992;37.252;2023-12-28T07:32:23;98566.59;;;-1.08;66.27
46111;BME280;31849;55.992;37.252;2023-12-28T07:37:28;98574.38;;;-1.03;66.09
46111;BME280;31849;55.992;37.252;2023-12-28T07:42:32;98577.09;;;-0.97;66.03
46111;BME280;31849;55.992;37.252;2023-12-28T07:47:37;98576.41;;;-0.91;66.24
46111;BME280;31849;55.992;37.252;2023-12-28T07:52:41;98590.22;;;-0.84;66.28
46111;BME280;31849;55.992;37.252;2023-12-28T07:57:45;98601.34;;;-0.82;66.09
46111;BME280;31849;55.992;37.252;2023-12-28T08:02:51;98600.44;;;-0.84;65.93
46111;BME280;31849;55.992;37.252;2023-12-28T08:07:55;98606.28;;;-0.89;66.06
46111;BME280;31849;55.992;37.252;2023-12-28T08:12:59;98624.06;;;-0.92;66.12
46111;BME280;31849;55.992;37.252;2023-12-28T08:18:04;98609.97;;;-1.08;66.50
46111;BME280;31849;55.992;37.252;2023-12-28T08:23:09;98628.44;;;-0.87;66.37
46111;BME280;31849;55.992;37.252;2023-12-28T08:28:19;98623.31;;;-0.87;66.68
46111;BME280;31849;55.992;37.252;2023-12-28T08:33:25;98635.19;;;-0.88;65.80
46111;BME280;31849;55.992;37.252;2023-12-28T08:38:29;98637.78;;;-0.86;66.26
46111;BME280;31849;55.992;37.252;2023-12-28T08:43:33;98644.47;;;-0.92;66.04
46111;BME280;31849;55.992;37.252;2023-12-28T08:48:38;98659.97;;;-0.85;66.18
46111;BME280;31849;55.992;37.252;2023-12-28T08:53:42;98658.31;;;-0.83;65.44
46111;BME280;31849;55.992;37.252;2023-12-28T08:58:46;98655.06;;;-0.78;65.83
46111;BME280;31849;55.992;37.252;2023-12-28T09:03:53;98664.53;;;-0.75;65.23
46111;BME280;31849;55.992;37.252;2023-12-28T09:08:57;98658.78;;;-0.68;64.60
46111;BME280;31849;55.992;37.252;2023-12-28T09:14:01;98661.97;;;-0.45;63.49
46111;BME280;31849;55.992;37.252;2023-12-28T09:19:06;98657.97;;;-0.05;62.77
46111;BME280;31849;55.992;37.252;2023-12-28T09:24:10;98664.06;;;-0.01;62.10
46111;BME280;31849;55.992;37.252;2023-12-28T09:29:14;98664.00;;;-0.03;62.30
46111;BME280;31849;55.992;37.252;2023-12-28T09:34:20;98670.00;;;-0.01;61.72
46111;BME280;31849;55.992;37.252;2023-12-28T09:39:24;98665.78;;;0.00;62.00
46111;BME280;31849;55.992;37.252;2023-12-28T09:44:29;98644.91;;;-0.15;62.09
46111;BME280;31849;55.992;37.252;2023-12-28T09:49:37;98687.72;;;-0.08;62.10
46111;BME280;31849;55.992;37.252;2023-12-28T09:54:41;98690.25;;;-0.08;62.26
46111;BME280;31849;55.992;37.252;2023-12-28T09:59:45;98679.97;;;-0.11;61.94
46111;BME280;31849;55.992;37.252;2023-12-28T10:04:50;98692.47;;;-0.21;61.75
46111;BME280;31849;55.992;37.252;2023-12-28T10:09:54;98685.59;;;-0.23;62.20
46111;BME280;31849;55.992;37.252;2023-12-28T10:14:59;98670.06;;;-0.31;61.95
46111;BME280;31849;55.992;37.252;2023-12-28T10:20:09;98675.03;;;-0.36;61.91
46111;BME280;31849;55.992;37.252;2023-12-28T10:25:14;98674.34;;;-0.28;61.63
46111;BME280;31849;55.992;37.252;2023-12-28T10:30:20;98638.47;;;-0.63;61.61
46111;BME280;31849;55.992;37.252;2023-12-28T10:35:27;98685.38;;;-0.60;60.66
46111;BME280;31849;55.992;37.252;2023-12-28T10:40:31;98685.47;;;-0.57;60.88
46111;BME280;31849;55.992;37.252;2023-12-28T10:45:37;98674.22;;;-0.63;60.52
46111;BME280;31849;55.992;37.252;2023-12-28T10:50:49;98680.69;;;-0.75;60.61
46111;BME280;31849;55.992;37.252;2023-12-28T10:56:00;98679.66;;;-0.81;60.94
46111;BME280;31849;55.992;37.252;2023-12-28T11:01:09;98677.88;;;-0.84;60.83
46111;BME280;31849;55.992;37.252;2023-12-28T11:06:17;98682.69;;;-0.93;61.38
46111;BME280;31849;55.992;37.252;2023-12-28T11:11:21;98675.75;;;-0.97;60.94
46111;BME280;31849;55.992;37.252;2023-12-28T11:16:26;98688.97;;;-1.11;60.24
46111;BME280;31849;55.992;37.252;2023-12-28T11:21:33;98694.47;;;-1.24;59.94
46111;BME280;31849;55.992;37.252;2023-12-28T11:26:37;98689.72;;;-1.40;60.21
46111;BME280;31849;55.992;37.252;2023-12-28T11:31:41;98693.47;;;-1.55;60.27
46111;BME280;31849;55.992;37.252;2023-12-28T11:36:49;98714.13;;;-1.73;59.25
46111;BME280;31849;55.992;37.252;2023-12-28T11:41:59;98698.84;;;-1.97;59.10
46111;BME280;31849;55.992;37.252;2023-12-28T11:47:11;98710.81;;;-1.95;58.79
46111;BME280;31849;55.992;37.252;2023-12-28T11:52:24;98716.53;;;-2.24;58.98
46111;BME280;31849;55.992;37.252;2023-12-28T11:57:28;98728.50;;;-2.46;59.27
46111;BME280;31849;55.992;37.252;2023-12-28T12:02:32;98727.03;;;-2.62;59.28
46111;BME280;31849;55.992;37.252;2023-12-28T12:07:38;98728.94;;;-2.79;59.21
46111;BME280;31849;55.992;37.252;2023-12-28T12:12:42;98736.75;;;-2.74;59.27
46111;BME280;31849;55.992;37.252;2023-12-28T12:17:46;98736.00;;;-2.72;59.15
46111;BME280;31849;55.992;37.252;2023-12-28T12:22:51;98747.53;;;-3.03;59.28
46111;BME280;31849;55.992;37.252;2023-12-28T12:27:55;98743.56;;;-3.17;59.51
46111;BME280;31849;55.992;37.252;2023-12-28T12:33:00;98740.06;;;-3.40;60.15
46111;BME280;31849;55.992;37.252;2023-12-28T12:38:07;98751.16;;;-3.59;60.20
46111;BME280;31849;55.992;37.252;2023-12-28T12:43:11;98764.59;;;-3.62;60.55
46111;BME280;31849;55.992;37.252;2023-12-28T12:48:15;98760.63;;;-3.55;60.63
46111;BME280;31849;55.992;37.252;2023-12-28T12:53:21;98764.63;;;-3.41;60.47
46111;BME280;31849;55.992;37.252;2023-12-28T12:58:25;98777.28;;;-3.21;60.43
46111;BME280;31849;55.992;37.252;2023-12-28T13:03:31;98779.34;;;-3.12;60.88
46111;BME280;31849;55.992;37.252;2023-12-28T13:08:37;98776.19;;;-3.07;60.72
46111;BME280;31849;55.992;37.252;2023-12-28T13:13:41;98770.41;;;-3.03;60.78
46111;BME280;31849;55.992;37.252;2023-12-28T13:18:45;98773.16;;;-2.98;61.10
46111;BME280;31849;55.992;37.252;2023-12-28T13:23:50;98771.81;;;-2.88;60.95
46111;BME280;31849;55.992;37.252;2023-12-28T13:28:54;98774.53;;;-2.84;60.85
46111;BME280;31849;55.992;37.252;2023-12-28T13:33:58;98785.59;;;-2.83;60.36
46111;BME280;31849;55.992;37.252;2023-12-28T13:39:04;98778.28;;;-2.96;59.90
46111;BME280;31849;55.992;37.252;2023-12-28T13:44:08;98740.28;;;-3.14;60.14
46111;BME280;31849;55.992;37.252;2023-12-28T13:49:14;98778.94;;;-2.79;59.82
46111;BME280;31849;55.992;37.252;2023-12-28T13:54:20;98779.84;;;-2.79;59.06
46111;BME280;31849;55.992;37.252;2023-12-28T13:59:24;98772.22;;;-2.79;59.35
46111;BME280;31849;55.992;37.252;2023-12-28T14:04:28;98769.09;;;-3.14;59.22
46111;BME280;31849;55.992;37.252;2023-12-28T14:09:33;98771.09;;;-3.28;59.69
46111;BME280;31849;55.992;37.252;2023-12-28T14:14:38;98775.41;;;-3.25;60.04
46111;BME280;31849;55.992;37.252;2023-12-28T14:19:42;98783.03;;;-3.25;59.89
46111;BME280;31849;55.992;37.252;2023-12-28T14:24:48;98777.16;;;-3.24;59.79
46111;BME280;31849;55.992;37.252;2023-12-28T14:29:54;98788.84;;;-3.08;59.72
46111;BME280;31849;55.992;37.252;2023-12-28T14:35:01;98768.44;;;-3.10;60.05
46111;BME280;31849;55.992;37.252;2023-12-28T14:40:07;98768.72;;;-3.02;59.87
46111;BME280;31849;55.992;37.252;2023-12-28T14:45:13;98760.38;;;-2.99;59.69
46111;BME280;31849;55.992;37.252;2023-12-28T14:50:17;98752.16;;;-3.13;59.62
46111;BME280;31849;55.992;37.252;2023-12-28T14:55:22;98731.63;;;-3.18;59.64
46111;BME280;31849;55.992;37.252;2023-12-28T15:00:26;98729.78;;;-3.22;59.55
46111;BME280;31849;55.992;37.252;2023-12-28T15:05:30;98718.19;;;-3.15;60.02
46111;BME280;31849;55.992;37.252;2023-12-28T15:10:36;98724.25;;;-3.12;59.21
46111;BME280;31849;55.992;37.252;2023-12-28T15:15:41;98725.94;;;-3.12;59.55
46111;BME280;31849;55.992;37.252;2023-12-28T15:20:45;98715.75;;;-3.12;59.88
46111;BME280;31849;55.992;37.252;2023-12-28T15:25:51;98709.00;;;-3.12;59.85
46111;BME280;31849;55.992;37.252;2023-12-28T15:30:54;98705.81;;;-3.06;59.93
46111;BME280;31849;55.992;37.252;2023-12-28T15:35:58;98703.66;;;-3.18;60.54
46111;BME280;31849;55.992;37.252;2023-12-28T15:41:03;98672.28;;;-3.19;60.11
46111;BME280;31849;55.992;37.252;2023-12-28T15:46:07;98702.69;;;-3.22;60.25
46111;BME280;31849;55.992;37.252;2023-12-28T15:51:11;98708.81;;;-3.16;60.55
46111;BME280;31849;55.992;37.252;2023-12-28T15:56:16;98713.59;;;-3.24;60.79
46111;BME280;31849;55.992;37.252;2023-12-28T16:01:21;98704.56;;;-3.17;60.49
46111;BME280;31849;55.992;37.252;2023-12-28T16:06:25;98706.75;;;-3.25;60.71
46111;BME280;31849;55.992;37.252;2023-12-28T16:11:30;98711.41;;;-3.15;60.76
46111;BME280;31849;55.992;37.252;2023-12-28T16:16:34;98704.72;;;-3.13;60.67
46111;BME280;31849;55.992;37.252;2023-12-28T16:21:39;98710.13;;;-3.05;60.72
46111;BME280;31849;55.992;37.252;2023-12-28T16:26:44;98700.25;;;-2.97;60.73
46111;BME280;31849;55.992;37.252;2023-12-28T16:31:48;98694.84;;;-3.05;60.64
46111;BME280;31849;55.992;37.252;2023-12-28T16:36:53;98697.56;;;-3.01;60.74
46111;BME280;31849;55.992;37.252;2023-12-28T16:41:58;98693.66;;;-2.92;60.67
46111;BME280;31849;55.992;37.252;2023-12-28T16:47:02;98689.22;;;-2.98;60.98
46111;BME280;31849;55.992;37.252;2023-12-28T16:52:06;98695.38;;;-2.91;60.71
46111;BME280;31849;55.992;37.252;2023-12-28T16:57:12;98697.34;;;-3.07;60.50
46111;BME280;31849;55.992;37.252;2023-12-28T17:02:15;98694.25;;;-3.21;60.70
46111;BME280;31849;55.992;37.252;2023-12-28T17:07:19;98692.03;;;-3.13;60.48
46111;BME280;31849;55.992;37.252;2023-12-28T17:12:27;98700.16;;;-3.22;60.42
46111;BME280;31849;55.992;37.252;2023-12-28T17:17:34;98705.22;;;-3.22;60.67
46111;BME280;31849;55.992;37.252;2023-12-28T17:22:41;98707.91;;;-3.19;60.57
46111;BME280;31849;55.992;37.252;2023-12-28T17:27:50;98699.53;;;-3.16;60.90
46111;BME280;31849;55.992;37.252;2023-12-28T17:32:58;98690.94;;;-3.18;60.89
46111;BME280;31849;55.992;37.252;2023-12-28T17:38:03;98689.19;;;-3.21;61.06
46111;BME280;31849;55.992;37.252;2023-12-28T17:43:11;98682.47;;;-3.19;60.74
46111;BME280;31849;55.992;37.252;2023-12-28T17:48:20;98670.03;;;-3.11;60.68
46111;BME280;31849;55.992;37.252;2023-12-28T17:53:25;98668.91;;;-2.96;60.78
46111;BME280;31849;55.992;37.252;2023-12-28T17:58:31;98663.28;;;-3.10;60.71
46111;BME280;31849;55.992;37.252;2023-12-28T18:03:35;98656.19;;;-3.19;60.12
46111;BME280;31849;55.992;37.252;2023-12-28T18:08:41;98654.09;;;-3.07;60.38
46111;BME280;31849;55.992;37.252;2023-12-28T18:13:46;98654.78;;;-3.11;60.17
46111;BME280;31849;55.992;37.252;2023-12-28T18:18:50;98642.47;;;-3.23;60.18
46111;BME280;31849;55.992;37.252;2023-12-28T18:23:54;98634.66;;;-3.27;60.47
46111;BME280;31849;55.992;37.252;2023-12-28T18:28:59;98628.91;;;-3.23;60.73
46111;BME280;31849;55.992;37.252;2023-12-28T18:34:03;98621.56;;;-3.15;60.66
46111;BME280;31849;55.992;37.252;2023-12-28T18:39:07;98621.03;;;-3.29;60.93
46111;BME280;31849;55.992;37.252;2023-12-28T18:44:13;98620.25;;;-3.27;60.89
46111;BME280;31849;55.992;37.252;2023-12-28T18:49:17;98617.03;;;-3.23;60.99
46111;BME280;31849;55.992;37.252;2023-12-28T18:54:21;98601.28;;;-3.14;61.11
46111;BME280;31849;55.992;37.252;2023-12-28T18:59:26;98599.41;;;-3.18;60.81
46111;BME280;31849;55.992;37.252;2023-12-28T19:04:30;98601.09;;;-3.41;61.12
46111;BME280;31849;55.992;37.252;2023-12-28T19:09:36;98597.91;;;-3.36;61.41
46111;BME280;31849;55.992;37.252;2023-12-28T19:14:42;98584.56;;;-3.30;61.34
46111;BME280;31849;55.992;37.252;2023-12-28T19:19:47;98583.25;;;-3.20;61.10
46111;BME280;31849;55.992;37.252;2023-12-28T19:24:51;98570.09;;;-3.32;61.54
46111;BME280;31849;55.992;37.252;2023-12-28T19:29:57;98568.03;;;-3.41;61.40
46111;BME280;31849;55.992;37.252;2023-12-28T19:35:01;98564.22;;;-3.30;61.81
46111;BME280;31849;55.992;37.252;2023-12-28T19:40:06;98554.97;;;-3.50;61.91
46111;BME280;31849;55.992;37.252;2023-12-28T19:45:12;98550.31;;;-3.40;61.95
46111;BME280;31849;55.992;37.252;2023-12-28T19:50:16;98563.47;;;-3.27;61.78
46111;BME280;31849;55.992;37.252;2023-12-28T19:55:20;98561.06;;;-3.24;61.89
46111;BME280;31849;55.992;37.252;2023-12-28T20:00:25;98552.03;;;-3.39;62.11
46111;BME280;31849;55.992;37.252;2023-12-28T20:05:29;98552.09;;;-3.37;62.07
46111;BME280;31849;55.992;37.252;2023-12-28T20:10:33;98555.75;;;-3.30;62.45
46111;BME280;31849;55.992;37.252;2023-12-28T20:15:38;98551.84;;;-3.43;62.32
46111;BME280;31849;55.992;37.252;2023-12-28T20:20:44;98553.47;;;-3.45;62.58
46111;BME280;31849;55.992;37.252;2023-12-28T20:25:48;98554.44;;;-3.42;62.50
46111;BME280;31849;55.992;37.252;2023-12-28T20:30:53;98547.63;;;-3.65;63.00
46111;BME280;31849;55.992;37.252;2023-12-28T20:35:57;98545.47;;;-3.77;63.48
46111;BME280;31849;55.992;37.252;2023-12-28T20:41:01;98521.34;;;-3.66;62.72
46111;BME280;31849;55.992;37.252;2023-12-28T20:46:09;98517.25;;;-3.62;63.50
46111;BME280;31849;55.992;37.252;2023-12-28T20:51:13;98496.16;;;-3.60;63.49
46111;BME280;31849;55.992;37.252;2023-12-28T20:56:16;98486.13;;;-3.79;64.00
46111;BME280;31849;55.992;37.252;2023-12-28T21:01:22;98489.03;;;-3.91;63.64
46111;BME280;31849;55.992;37.252;2023-12-28T21:06:28;98490.50;;;-3.75;64.07
46111;BME280;31849;55.992;37.252;2023-12-28T21:11:32;98475.16;;;-3.78;63.68
46111;BME280;31849;55.992;37.252;2023-12-28T21:16:37;98492.72;;;-3.84;63.66
46111;BME280;31849;55.992;37.252;2023-12-28T21:21:41;98486.63;;;-3.88;63.87
46111;BME280;31849;55.992;37.252;2023-12-28T21:26:45;98487.53;;;-3.86;64.20
46111;BME280;31849;55.992;37.252;2023-12-28T21:31:50;98470.09;;;-3.99;64.11
46111;BME280;31849;55.992;37.252;2023-12-28T21:36:53;98475.66;;;-3.87;64.35
46111;BME280;31849;55.992;37.252;2023-12-28T21:41:57;98479.38;;;-4.00;64.61
46111;BME280;31849;55.992;37.252;2023-12-28T21:47:03;98470.72;;;-3.84;64.25
46111;BME280;31849;55.992;37.252;2023-12-28T21:52:07;98463.25;;;-3.79;64.20
46111;BME280;31849;55.992;37.252;2023-12-28T21:57:11;98459.13;;;-3.98;64.74
46111;BME280;31849;55.992;37.252;2023-12-28T22:02:16;98441.13;;;-4.04;64.77
46111;BME280;31849;55.992;37.252;2023-12-28T22:07:20;98443.97;;;-3.97;64.81
46111;BME280;31849;55.992;37.252;2023-12-28T22:12:24;98435.06;;;-4.08;65.17
46111;BME280;31849;55.992;37.252;2023-12-28T22:17:32;98436.00;;;-4.06;64.75
46111;BME280;31849;55.992;37.252;2023-12-28T22:22:36;98423.91;;;-4.12;65.52
46111;BME280;31849;55.992;37.252;2023-12-28T22:27:40;98415.16;;;-3.97;65.09
46111;BME280;31849;55.992;37.252;2023-12-28T22:32:45;98394.69;;;-4.02;65.05
46111;BME280;31849;55.992;37.252;2023-12-28T22:37:49;98398.75;;;-4.06;65.11
46111;BME280;31849;55.992;37.252;2023-12-28T22:42:53;98396.72;;;-3.93;65.33
46111;BME280;31849;55.992;37.252;2023-12-28T22:47:59;98408.91;;;-4.06;65.46
46111;BME280;31849;55.992;37.252;2023-12-28T22:53:04;98403.03;;;-4.04;65.61
46111;BME280;31849;55.992;37.252;2023-12-28T22:58:08;98396.41;;;-4.01;65.51
46111;BME280;31849;55.992;37.252;2023-12-28T23:03:13;98392.25;;;-3.99;65.49
46111;BME280;31849;55.992;37.252;2023-12-28T23:08:17;98383.06;;;-3.95;65.49
46111;BME280;31849;55.992;37.252;2023-12-28T23:13:21;98371.84;;;-4.02;65.65
46111;BME280;31849;55.992;37.252;2023-12-28T23:18:26;98355.66;;;-4.04;65.55
46111;BME280;31849;55.992;37.252;2023-12-28T23:23:30;98340.72;;;-3.96;65.57
46111;BME280;31849;55.992;37.252;2023-12-28T23:28:34;98335.75;;;-3.93;65.36
46111;BME280;31849;55.992;37.252;2023-12-28T23:33:40;98328.16;;;-3.93;65.68
46111;BME280;31849;55.992;37.252;2023-12-28T23:38:44;98332.41;;;-3.92;65.92
46111;BME280;31849;55.992;37.252;2023-12-28T23:43:47;98308.00;;;-3.89;65.28
46111;BME280;31849;55.992;37.252;2023-12-28T23:48:53;98306.78;;;-3.98;65.81
46111;BME280;31849;55.992;37.252;2023-12-28T23:53:56;98295.94;;;-3.94;65.77
46111;BME280;31849;55.992;37.252;2023-12-28T23:59:00;98288.38;;;-3.93;66.09
